Terminal Aerodrome Forecast
Issued by NWS Pueblo, CO

Home | Current Version | Previous Version | Text Only | Print | Product List | Glossary On
Versions: 1 2 3 4 5 6 7 8 9 10 11 12 13 14 15 16 17 18 19 20 21 22
000
FTUS45 KPUB 191538 AAB
TAFPUB
TAF AMD
KPUB 191538Z 1916/2012 09005KT P6SM SCT250
     FM191700 11011KT P6SM SCT250
     FM191900 13015G25KT P6SM FEW120 SCT220
     FM192200 14023G33KT P6SM SCT120 SCT220
     FM200400 13018G28KT P6SM BKN120=

USA.gov is the U.S. government's official web portal to all federal, state and local government web resources and services.